Time;durP1;ratioP1;P1;durP2;ratioP2;P2;SDS_P1;SDS_P2;PMS_P1;PMS_P2;Temp;Humidity;BMP_temperature;BMP_pressure;BME280_temperature;BME280_humidity;BME280_pressure;Samples;Min_cycle;Max_cycle;Signal;HPM_P1;HPM_P2
2022/12/13 00:02:15;;;;;;;36.30;14.77;;;;;;;-8.05;100.00;101058.84;5005137;28;20034;-88
2022/12/13 00:04:41;;;;;;;55.03;37.47;;;;;;;-8.16;100.00;101057.66;5004982;28;20033;-87
2022/12/13 00:07:06;;;;;;;49.58;34.38;;;;;;;-8.17;100.00;101063.66;5012528;28;20033;-89
2022/12/13 00:09:31;;;;;;;32.28;15.10;;;;;;;-8.13;100.00;101068.09;5036420;28;20025;-88
2022/12/13 00:11:57;;;;;;;37.10;14.98;;;;;;;-8.17;100.00;101057.63;5007654;28;20014;-87
2022/12/13 00:14:22;;;;;;;44.63;33.50;;;;;;;-8.07;100.00;101052.78;5000550;28;20054;-88
2022/12/13 00:16:48;;;;;;;47.35;33.72;;;;;;;-8.14;100.00;101037.94;5008671;28;20112;-88
2022/12/13 00:19:14;;;;;;;28.70;15.32;;;;;;;-8.08;100.00;101061.34;5005009;28;20522;-89
2022/12/13 00:21:39;;;;;;;47.67;33.80;;;;;;;-8.07;100.00;101037.28;5008245;28;20032;-87
2022/12/13 00:24:06;;;;;;;50.38;33.55;;;;;;;-7.97;100.00;101058.19;5015385;28;20029;-89
2022/12/13 00:26:32;;;;;;;28.88;14.60;;;;;;;-8.01;100.00;101052.06;5030158;28;20006;-88
2022/12/13 00:28:59;;;;;;;44.85;31.25;;;;;;;-8.05;100.00;101029.56;5028249;28;20033;-88
2022/12/13 00:31:25;;;;;;;44.97;32.15;;;;;;;-8.14;100.00;101047.41;5030138;28;20021;-88
2022/12/13 00:33:50;;;;;;;28.83;14.00;;;;;;;-8.13;100.00;101052.59;5031374;28;20014;-87
2022/12/13 00:36:15;;;;;;;41.22;29.85;;;;;;;-8.24;100.00;101053.13;5026860;28;20026;-88
2022/12/13 00:38:41;;;;;;;42.97;30.42;;;;;;;-8.22;100.00;101057.50;5014081;28;20026;-88
2022/12/13 00:41:15;;;;;;;42.45;30.65;;;;;;;-8.33;100.00;101044.28;5022942;28;20022;-90
2022/12/13 00:43:41;;;;;;;29.67;13.52;;;;;;;-8.45;100.00;101023.31;5017447;28;20038;-87
2022/12/13 00:46:15;;;;;;;42.38;30.77;;;;;;;-8.55;100.00;101008.41;5007994;28;20080;-88
2022/12/13 00:48:41;;;;;;;42.72;31.33;;;;;;;-8.41;100.00;101032.88;5006729;28;20030;-89
2022/12/13 00:51:08;;;;;;;28.20;14.55;;;;;;;-8.36;100.00;101043.31;5008301;28;20065;-89
2022/12/13 00:53:34;;;;;;;45.83;32.25;;;;;;;-8.36;100.00;101031.31;5007388;28;20060;-88
2022/12/13 00:55:59;;;;;;;46.30;33.50;;;;;;;-8.18;100.00;101037.81;5017742;28;20029;-89
2022/12/13 00:58:24;;;;;;;29.92;15.02;;;;;;;-8.59;100.00;100989.38;5004218;28;20438;-88
2022/12/13 01:00:49;;;;;;;41.30;31.33;;;;;;;-8.40;100.00;101026.00;5007100;28;20121;-87
2022/12/13 01:03:24;;;;;;;41.53;28.90;;;;;;;-8.36;100.00;101031.31;5005929;28;20406;-89
2022/12/13 01:05:50;;;;;;;31.13;14.38;;;;;;;-8.36;100.00;101044.22;5006017;28;20036;-88
2022/12/13 01:08:15;;;;;;;27.40;12.05;;;;;;;-8.45;100.00;101032.75;5006173;28;20026;-87
2022/12/13 01:10:45;;;;;;;40.00;29.17;;;;;;;-8.49;100.00;101041.25;5009274;28;20037;-88
2022/12/13 01:13:11;;;;;;;46.22;30.45;;;;;;;-8.56;100.00;101029.88;5007195;28;20025;-88
2022/12/13 01:15:45;;;;;;;44.70;31.45;;;;;;;-8.48;100.00;101036.16;5015555;28;20722;-88
2022/12/13 01:18:12;;;;;;;45.67;31.88;;;;;;;-8.51;100.00;101038.63;5011031;28;20034;-89
2022/12/13 01:20:37;;;;;;;40.67;30.63;;;;;;;-8.66;100.00;101023.56;5005910;28;20268;-88
2022/12/13 01:23:04;;;;;;;35.05;15.00;;;;;;;-8.62;100.00;101029.69;5006288;28;20137;-89
2022/12/13 01:25:32;;;;;;;44.08;31.83;;;;;;;-8.69;100.00;101036.38;5004509;28;20026;-88
2022/12/13 01:28:00;;;;;;;26.73;13.25;;;;;;;-8.75;100.00;101018.13;5011959;28;20045;-89
2022/12/13 01:30:25;;;;;;;43.80;32.08;;;;;;;-8.63;100.00;101039.13;5004780;28;20022;-88
2022/12/13 01:32:51;;;;;;;29.63;13.75;;;;;;;-8.84;100.00;100998.09;5003468;28;20033;-88
2022/12/13 01:35:16;;;;;;;46.15;31.73;;;;;;;-8.71;100.00;101022.53;5005004;28;20029;-88
2022/12/13 01:37:41;;;;;;;44.05;32.35;;;;;;;-8.61;100.00;101029.75;5003794;28;20057;-88
2022/12/13 01:40:08;;;;;;;30.42;14.80;;;;;;;-8.68;100.00;101038.13;5013548;28;20029;-89
2022/12/13 01:42:37;;;;;;;42.78;30.40;;;;;;;-8.63;100.00;101033.09;5023861;28;20017;-88
2022/12/13 01:45:16;;;;;;;52.15;35.92;;;;;;;-8.44;100.00;101044.81;5017894;28;20046;-89
2022/12/13 01:47:45;;;;;;;32.63;16.33;;;;;;;-8.54;100.00;101057.47;5004567;28;20092;-88
2022/12/13 01:50:18;;;;;;;49.88;34.30;;;;;;;-8.69;100.00;101051.88;5011831;28;20034;-87
2022/12/13 01:52:44;;;;;;;29.23;14.35;;;;;;;-8.84;100.00;101023.00;5008571;28;20029;-89
2022/12/13 01:55:11;;;;;;;43.97;17.15;;;;;;;-8.82;100.00;101037.72;5009160;28;20604;-89
2022/12/13 01:57:39;;;;;;;48.25;34.00;;;;;;;-8.90;100.00;101028.88;5007691;28;20033;-89
2022/12/13 02:00:06;;;;;;;53.45;34.35;;;;;;;-8.78;100.00;101043.81;5009290;28;20100;-89
2022/12/13 02:02:32;;;;;;;54.03;36.50;;;;;;;-8.90;100.00;101031.44;5015326;28;20025;-88
2022/12/13 02:05:16;;;;;;;33.80;16.10;;;;;;;-8.79;100.00;101049.81;5026373;28;20035;-89
2022/12/13 02:07:44;;;;;;;50.28;34.30;;;;;;;-8.81;100.00;101041.16;5013299;28;20382;-88
2022/12/13 02:10:09;;;;;;;57.83;39.33;;;;;;;-8.69;100.00;101040.63;5008262;28;20026;-87
2022/12/13 02:12:36;;;;;;;53.33;35.22;;;;;;;-8.70;100.00;101044.06;5022735;28;20045;-88
2022/12/13 02:15:13;;;;;;;37.25;15.88;;;;;;;-8.85;100.00;101042.78;5012398;28;20104;-89
2022/12/13 02:17:38;;;;;;;52.05;34.85;;;;;;;-8.82;100.00;101047.13;5012443;28;20050;-88
2022/12/13 02:20:40;;;;;;;56.03;37.28;;;;;;;-8.83;100.00;101040.22;5007412;28;20060;-89
2022/12/13 02:23:42;;;;;;;33.95;15.52;;;;;;;-9.08;100.00;101008.53;5008011;28;20415;-88
2022/12/13 02:26:26;;;;;;;32.10;14.80;;;;;;;-8.88;100.00;101046.97;5008114;28;20033;-88
2022/12/13 02:29:12;;;;;;;30.00;14.98;;;;;;;-8.87;100.00;101043.53;5029860;28;20128;-88
2022/12/13 02:31:53;;;;;;;34.90;14.93;;;;;;;-8.88;100.00;101040.09;5027655;28;20018;-88
2022/12/13 02:34:32;;;;;;;50.03;34.03;;;;;;;-8.86;100.00;101040.13;5041478;28;20087;-88
2022/12/13 02:37:20;;;;;;;28.05;15.70;;;;;;;-8.84;100.00;101041.06;5027063;28;20045;-88
2022/12/13 02:39:57;;;;;;;45.88;32.78;;;;;;;-8.85;100.00;101026.44;5041633;28;20022;-88
2022/12/13 02:42:30;;;;;;;53.28;35.00;;;;;;;-8.98;100.00;101004.53;5047736;28;20072;-87
2022/12/13 02:45:07;;;;;;;31.52;15.00;;;;;;;-8.84;100.00;101025.59;5012571;28;20118;-89
2022/12/13 02:47:35;;;;;;;28.58;14.30;;;;;;;-8.85;100.00;101026.44;5014896;28;20084;-88
2022/12/13 02:50:05;;;;;;;49.67;34.65;;;;;;;-8.98;100.00;101011.41;5012312;28;20064;-88
2022/12/13 02:52:31;;;;;;;26.95;14.13;;;;;;;-8.91;100.00;101021.06;5011565;28;20370;-88
2022/12/13 02:54:57;;;;;;;32.78;14.32;;;;;;;-8.89;100.00;101025.47;5010236;28;20028;-88
2022/12/13 02:57:34;;;;;;;48.72;33.17;;;;;;;-8.94;100.00;101005.53;5009246;28;20112;-88
2022/12/13 03:00:06;;;;;;;29.17;15.23;;;;;;;-8.88;100.00;101016.00;5012229;28;20026;-87
2022/12/13 03:03:10;;;;;;;51.13;35.42;;;;;;;-8.83;100.00;101014.44;5027537;28;20085;-89
2022/12/13 03:08:46;;;;;;;30.25;14.93;;;;;;;-8.96;100.00;101002.00;4977944;28;20632;-88
2022/12/13 03:11:18;;;;;;;28.67;14.20;;;;;;;-9.00;100.00;100987.25;4976654;28;20102;-88
2022/12/13 03:13:57;;;;;;;28.33;15.18;;;;;;;-8.95;100.00;100993.44;4960105;28;20839;-89
2022/12/13 03:16:28;;;;;;;48.67;33.55;;;;;;;-8.92;100.00;101002.13;4952053;28;20066;-88
2022/12/13 03:18:59;;;;;;;40.70;16.50;;;;;;;-8.91;100.00;101003.88;4950724;28;20561;-88
2022/12/13 03:21:24;;;;;;;33.53;15.25;;;;;;;-8.90;100.00;101012.50;4950182;28;20199;-88
2022/12/13 03:23:50;;;;;;;35.53;15.80;;;;;;;-8.99;100.00;101000.19;4966652;28;20030;-88
2022/12/13 03:26:26;;;;;;;30.40;15.43;;;;;;;-8.90;100.00;101012.50;4949491;28;20030;-88
2022/12/13 03:28:51;;;;;;;53.20;34.17;;;;;;;-9.05;100.00;101000.88;4967859;28;20031;-88
2022/12/13 03:31:17;;;;;;;33.35;16.92;;;;;;;-9.07;100.00;101010.28;4951131;28;20041;-88
2022/12/13 03:33:42;;;;;;;35.08;16.55;;;;;;;-9.12;100.00;101005.81;4967351;28;20031;-87
2022/12/13 03:36:10;;;;;;;50.20;32.88;;;;;;;-9.20;100.00;100991.78;4978695;28;20041;-89
2022/12/13 03:38:36;;;;;;;28.05;13.88;;;;;;;-9.17;100.00;101005.66;5008514;28;20032;-87
2022/12/13 03:41:06;;;;;;;52.90;34.25;;;;;;;-9.26;100.00;100971.00;5008902;28;20080;-88
2022/12/13 03:43:32;;;;;;;48.17;32.83;;;;;;;-9.21;100.00;101002.94;5006487;28;20068;-88
2022/12/13 03:45:58;;;;;;;28.40;15.02;;;;;;;-9.23;100.00;100989.16;5009723;28;20213;-88
2022/12/13 03:48:23;;;;;;;28.27;13.38;;;;;;;-9.12;100.00;100992.91;5014241;28;20457;-89
2022/12/13 03:50:50;;;;;;;54.67;35.83;;;;;;;-8.98;100.00;101001.97;5007459;28;20117;-88
2022/12/13 03:53:16;;;;;;;36.15;15.75;;;;;;;-9.06;100.00;101008.59;5008577;28;20037;-88
2022/12/13 03:55:41;;;;;;;27.50;14.30;;;;;;;-9.01;100.00;101001.88;5007115;28;20225;-89
2022/12/13 03:58:06;;;;;;;30.55;16.40;;;;;;;-9.01;100.00;101001.88;5011579;28;20028;-88
2022/12/13 04:00:32;;;;;;;30.10;15.20;;;;;;;-9.07;100.00;100983.59;5007579;28;20037;-89
2022/12/13 04:02:57;;;;;;;32.78;13.80;;;;;;;-8.88;100.00;101005.69;5009439;28;20032;-88
2022/12/13 04:05:23;;;;;;;53.30;34.97;;;;;;;-8.79;100.00;101001.66;5004960;28;20034;-90
2022/12/13 04:07:48;;;;;;;30.35;14.52;;;;;;;-8.93;100.00;100989.22;5003463;28;20030;-89
2022/12/13 04:10:13;;;;;;;34.38;15.00;;;;;;;-8.83;100.00;101005.00;5004707;28;20109;-89
2022/12/13 04:15:22;;;;;;;;;;;;;;;-8.80;100.00;100994.78;5004864;28;20422;-88
2022/12/13 04:17:48;;;;;;;30.95;13.98;;;;;;;-8.80;100.00;100993.91;5018696;28;19928;-89
2022/12/13 04:20:13;;;;;;;30.27;14.65;;;;;;;-8.84;100.00;100982.59;5005504;28;20018;-89
2022/12/13 04:22:38;;;;;;;30.58;13.80;;;;;;;-8.88;100.00;100970.44;5010919;28;20531;-91
2022/12/13 04:25:04;;;;;;;52.38;33.85;;;;;;;-8.76;100.00;100984.56;5006324;28;20046;-88
2022/12/13 04:27:30;;;;;;;56.75;36.85;;;;;;;-8.54;100.00;100992.06;5003869;28;20108;-89
2022/12/13 04:29:56;;;;;;;34.85;15.80;;;;;;;-8.65;100.00;100981.47;5005291;28;20048;-89
2022/12/13 04:32:21;;;;;;;62.38;38.88;;;;;;;-8.56;100.00;100967.94;5007852;28;20034;-88
2022/12/13 04:34:47;;;;;;;32.40;14.80;;;;;;;-8.52;100.00;100981.81;5022411;28;20087;-88
2022/12/13 04:37:12;;;;;;;58.22;36.88;;;;;;;-8.56;100.00;100966.22;5001293;28;20026;-88
2022/12/13 04:39:37;;;;;;;35.20;15.55;;;;;;;-8.54;100.00;100974.88;5004429;28;20029;-88
2022/12/13 04:42:03;;;;;;;36.72;17.90;;;;;;;-8.49;100.00;100985.31;5006831;28;20083;-88
2022/12/13 04:44:28;;;;;;;57.63;36.38;;;;;;;-8.47;100.00;100967.31;5015691;28;20049;-88
2022/12/13 04:46:54;;;;;;;59.42;39.17;;;;;;;-8.38;100.00;100972.75;5013940;28;20041;-87
2022/12/13 04:49:19;;;;;;;36.20;16.85;;;;;;;-8.52;100.00;100958.59;5017392;28;20036;-88
2022/12/13 04:51:44;;;;;;;63.90;39.38;;;;;;;-8.37;100.00;100959.84;5021373;28;20042;-88
2022/12/13 04:54:10;;;;;;;34.05;16.77;;;;;;;-8.44;100.00;100957.97;5038604;28;20018;-87
2022/12/13 04:56:36;;;;;;;58.20;37.28;;;;;;;-8.38;100.00;100954.66;5014746;28;20038;-87
2022/12/13 04:59:03;;;;;;;43.95;16.23;;;;;;;-8.49;100.00;100945.75;5009889;28;20022;-88
2022/12/13 05:01:28;;;;;;;34.45;16.17;;;;;;;-8.49;100.00;100941.44;5011826;28;20087;-88
2022/12/13 05:03:53;;;;;;;39.80;18.75;;;;;;;-8.36;100.00;100956.44;5017075;28;20041;-88
2022/12/13 05:06:19;;;;;;;36.45;17.92;;;;;;;-8.34;100.00;100965.09;5021975;28;20025;-88
2022/12/13 05:08:44;;;;;;;55.17;36.25;;;;;;;-8.45;100.00;100961.34;5012540;28;20013;-88
2022/12/13 05:11:10;;;;;;;40.15;16.65;;;;;;;-8.49;100.00;100956.06;5010409;28;20053;-88
2022/12/13 05:13:35;;;;;;;35.95;16.13;;;;;;;-8.49;100.00;100961.22;5024181;28;20039;-88
2022/12/13 05:16:06;;;;;;;58.90;37.08;;;;;;;-8.46;100.00;100963.91;5009240;28;20072;-88
2022/12/13 05:18:33;;;;;;;36.65;17.85;;;;;;;-8.66;100.00;100940.09;5008139;28;20055;-88
2022/12/13 05:21:06;;;;;;;30.02;14.25;;;;;;;-8.61;100.00;100965.22;5011981;28;20022;-89
2022/12/13 05:23:33;;;;;;;34.33;15.73;;;;;;;-8.64;100.00;100962.56;5000610;28;20113;-90
2022/12/13 05:25:58;;;;;;;34.33;14.82;;;;;;;-8.65;100.00;100958.22;5011358;28;20497;-89
2022/12/13 05:28:27;;;;;;;54.42;35.60;;;;;;;-8.68;100.00;100952.97;5010528;28;20030;-89
2022/12/13 05:30:56;;;;;;;42.22;17.23;;;;;;;-8.71;100.00;100952.88;5010620;28;20707;-88
2022/12/13 05:33:22;;;;;;;38.45;17.00;;;;;;;-8.74;100.00;100947.63;5011881;28;20057;-89
2022/12/13 05:35:48;;;;;;;27.15;14.18;;;;;;;-8.80;100.00;100948.34;5011826;28;20025;-88
2022/12/13 05:38:14;;;;;;;35.22;15.70;;;;;;;-8.85;100.00;100934.44;5017282;28;20721;-88
2022/12/13 05:40:39;;;;;;;55.72;35.50;;;;;;;-8.79;100.00;100955.22;5025103;28;20030;-89
2022/12/13 05:43:04;;;;;;;27.63;14.65;;;;;;;-8.85;100.00;100952.50;5012439;28;20049;-88
2022/12/13 05:45:31;;;;;;;30.45;15.02;;;;;;;-8.88;100.00;100943.78;5006979;28;20046;-89
2022/12/13 05:47:56;;;;;;;34.85;15.15;;;;;;;-8.95;100.00;100941.84;5009853;28;20038;-88
2022/12/13 05:50:22;;;;;;;60.50;37.53;;;;;;;-8.82;100.00;100954.28;5009234;28;20084;-88
2022/12/13 05:52:47;;;;;;;35.25;15.48;;;;;;;-8.95;100.00;100934.09;5011466;28;20112;-87
2022/12/13 05:55:13;;;;;;;63.00;38.10;;;;;;;-8.91;100.00;100933.38;5019654;28;20049;-89
2022/12/13 05:57:38;;;;;;;56.50;37.38;;;;;;;-8.85;100.00;100938.72;5007138;28;20117;-89
2022/12/13 06:00:06;;;;;;;35.58;15.30;;;;;;;-9.04;100.00;100917.53;5009619;28;20097;-88
2022/12/13 06:02:36;;;;;;;59.00;39.00;;;;;;;-8.87;100.00;100940.38;5009103;28;20017;-88
2022/12/13 06:05:02;;;;;;;34.38;15.65;;;;;;;-8.89;100.00;100952.38;5006051;28;20766;-89
2022/12/13 06:07:27;;;;;;;58.17;37.15;;;;;;;-9.01;100.00;100931.38;5006362;28;20022;-88
2022/12/13 06:09:53;;;;;;;35.45;16.17;;;;;;;-9.04;100.00;100943.31;5008549;28;20022;-88
2022/12/13 06:12:18;;;;;;;54.83;36.65;;;;;;;-8.99;100.00;100965.78;5009192;28;20029;-88
2022/12/13 06:14:43;;;;;;;37.78;16.95;;;;;;;-9.04;100.00;100963.94;5007526;28;20038;-88
2022/12/13 06:17:09;;;;;;;32.28;16.10;;;;;;;-9.05;100.00;100962.22;5016248;28;20028;-89
2022/12/13 06:19:34;;;;;;;54.22;34.42;;;;;;;-9.11;100.00;100956.88;5022846;28;20113;-88
2022/12/13 06:22:00;;;;;;;33.15;16.00;;;;;;;-9.09;100.00;100956.91;5009718;28;20946;-89
2022/12/13 06:24:26;;;;;;;40.17;18.25;;;;;;;-9.10;100.00;100958.63;5026013;28;20029;-88
2022/12/13 06:26:51;;;;;;;35.08;16.67;;;;;;;-9.07;100.00;100958.72;5028569;28;20013;-86
2022/12/13 06:29:19;;;;;;;56.85;37.17;;;;;;;-8.87;100.00;100951.56;5036015;28;20045;-86
2022/12/13 06:31:44;;;;;;;40.25;16.50;;;;;;;-9.00;100.00;100943.41;5040848;28;20195;-86
2022/12/13 06:34:09;;;;;;;39.15;19.17;;;;;;;-8.95;100.00;100949.59;5023422;28;20040;-86
2022/12/13 06:36:35;;;;;;;60.72;41.25;;;;;;;-8.81;100.00;100950.88;5004870;28;20080;-88
2022/12/13 06:39:04;;;;;;;45.78;18.33;;;;;;;-8.85;100.00;100956.78;5010283;28;20029;-87
2022/12/13 06:41:30;;;;;;;45.45;18.58;;;;;;;-8.87;100.00;100950.69;5010525;28;20139;-87
2022/12/13 06:43:56;;;;;;;41.35;18.38;;;;;;;-8.89;100.00;100945.50;5007083;28;20081;-86
2022/12/13 06:46:21;;;;;;;36.38;15.98;;;;;;;-8.93;100.00;100950.53;5006654;28;20034;-87
2022/12/13 06:48:47;;;;;;;64.10;40.00;;;;;;;-8.81;100.00;100958.63;5011525;28;20030;-87
2022/12/13 06:51:13;;;;;;;57.65;38.95;;;;;;;-8.99;100.00;100940.00;5005530;28;20025;-87
2022/12/13 06:53:39;;;;;;;43.88;18.90;;;;;;;-9.05;100.00;100941.59;5008481;28;20398;-88
2022/12/13 06:56:08;;;;;;;39.33;17.35;;;;;;;-9.01;100.00;100941.69;5019882;28;20036;-87
2022/12/13 06:58:33;;;;;;;41.65;18.90;;;;;;;-9.10;100.00;100938.00;5028778;28;20040;-87
2022/12/13 07:01:06;;;;;;;64.22;43.80;;;;;;;-8.87;100.00;100950.69;5034782;28;20026;-87
2022/12/13 07:03:33;;;;;;;61.08;39.28;;;;;;;-9.04;100.00;100948.47;5031657;28;20026;-87
2022/12/13 07:05:59;;;;;;;35.35;16.80;;;;;;;-9.15;100.00;100928.38;5020071;28;20033;-87
2022/12/13 07:08:26;;;;;;;39.17;16.60;;;;;;;-9.04;100.00;100953.63;5025458;28;20498;-87
2022/12/13 07:10:54;;;;;;;37.58;17.63;;;;;;;-9.03;100.00;100954.50;5023897;28;20038;-87
2022/12/13 07:13:20;;;;;;;45.80;17.52;;;;;;;-9.01;100.00;100952.00;5027717;28;20387;-87
2022/12/13 07:15:46;;;;;;;37.30;18.15;;;;;;;-9.05;100.00;100951.91;5011318;28;20065;-85
2022/12/13 07:18:12;;;;;;;44.10;17.75;;;;;;;-9.08;100.00;100945.75;5023144;28;20550;-86
2022/12/13 07:20:40;;;;;;;44.38;17.73;;;;;;;-9.06;100.00;100946.72;5003414;28;20029;-86
2022/12/13 07:23:06;;;;;;;70.85;44.25;;;;;;;-8.98;100.00;100941.78;5013427;28;20462;-87
2022/12/13 07:25:31;;;;;;;63.75;41.75;;;;;;;-8.98;100.00;100939.19;5013542;28;20036;-86
2022/12/13 07:28:03;;;;;;;43.67;19.70;;;;;;;-9.08;100.00;100948.34;5009940;28;20026;-86
2022/12/13 07:30:34;;;;;;;42.03;18.60;;;;;;;-9.16;100.00;100940.38;5013600;28;20025;-85
2022/12/13 07:33:01;;;;;;;41.63;19.88;;;;;;;-9.13;100.00;100947.34;5018335;28;20189;-86
2022/12/13 07:35:26;;;;;;;44.80;19.55;;;;;;;-9.14;100.00;100941.31;5016436;28;20104;-87
2022/12/13 07:37:52;;;;;;;50.65;19.90;;;;;;;-9.17;100.00;100938.63;5010297;28;20034;-87
2022/12/13 07:40:17;;;;;;;43.67;23.42;;;;;;;-9.10;100.00;100948.31;5009002;28;20018;-87
2022/12/13 07:42:49;;;;;;;73.03;44.15;;;;;;;-9.10;100.00;100953.47;5006578;28;20401;-88
2022/12/13 07:45:14;;;;;;;43.80;18.65;;;;;;;-9.10;100.00;100945.72;5009098;28;20049;-87
2022/12/13 07:47:40;;;;;;;48.13;18.25;;;;;;;-9.07;100.00;100955.25;5022939;28;20045;-88
2022/12/13 07:50:05;;;;;;;73.93;47.53;;;;;;;-9.06;100.00;100950.16;5014700;28;20188;-89
2022/12/13 07:52:30;;;;;;;54.47;19.20;;;;;;;-9.01;100.00;100958.03;5007881;28;20112;-87
2022/12/13 07:54:56;;;;;;;75.57;46.50;;;;;;;-8.85;100.00;100960.22;5006766;28;20113;-89
2022/12/13 07:57:21;;;;;;;76.75;47.42;;;;;;;-8.76;100.00;100969.94;5008326;28;20091;-88
2022/12/13 07:59:46;;;;;;;53.85;20.88;;;;;;;-8.81;100.00;100977.56;5008165;28;20046;-89
2022/12/13 08:02:12;;;;;;;48.92;21.02;;;;;;;-8.80;100.00;100968.09;5006957;28;20099;-90
2022/12/13 08:04:38;;;;;;;49.40;21.95;;;;;;;-8.75;100.00;100971.69;5004776;28;20036;-89
2022/12/13 08:07:07;;;;;;;44.90;21.08;;;;;;;-8.70;100.00;100962.38;5000758;28;20030;-89
2022/12/13 08:09:32;;;;;;;45.63;21.25;;;;;;;-8.58;100.00;100973.03;4998206;28;20021;-90
2022/12/13 08:11:58;;;;;;;45.17;19.33;;;;;;;-8.46;100.00;100963.91;4997405;28;20033;-88
2022/12/13 08:14:23;;;;;;;82.93;51.58;;;;;;;-8.15;100.00;100966.47;4997383;28;20510;-89
2022/12/13 08:16:48;;;;;;;90.25;54.33;;;;;;;-8.12;100.00;100952.75;5002048;28;20025;-90
2022/12/13 08:19:14;;;;;;;52.70;22.73;;;;;;;-8.12;100.00;100963.94;5003805;28;20014;-90
2022/12/13 08:21:40;;;;;;;51.92;24.77;;;;;;;-8.00;100.00;100963.41;5004465;28;20030;-89
2022/12/13 08:24:05;;;;;;;56.58;24.63;;;;;;;-7.91;100.00;100963.63;4997824;28;20167;-89
2022/12/13 08:26:31;;;;;;;59.85;24.75;;;;;;;-7.83;100.00;100956.94;5005801;28;20456;-88
2022/12/13 08:28:56;;;;;;;61.72;24.05;;;;;;;-7.68;100.00;100965.94;5005426;28;20080;-89
2022/12/13 08:31:22;;;;;;;94.80;56.15;;;;;;;-7.49;100.00;100975.88;5000003;28;20025;-88
2022/12/13 08:33:48;;;;;;;90.28;56.63;;;;;;;-7.33;100.00;100980.59;5001511;28;20022;-88
2022/12/13 08:36:16;;;;;;;61.15;25.25;;;;;;;-7.31;100.00;100976.34;5002992;28;20394;-88
2022/12/13 08:38:42;;;;;;;58.60;24.48;;;;;;;-7.29;100.00;100979.81;5032285;28;20062;-89
2022/12/13 08:41:08;;;;;;;91.88;55.67;;;;;;;-7.11;100.00;100988.84;5010707;28;20053;-88
2022/12/13 08:43:34;;;;;;;88.05;53.67;;;;;;;-7.07;100.00;100978.59;4999939;28;20064;-89
2022/12/13 08:46:00;;;;;;;60.20;25.10;;;;;;;-7.05;100.00;100978.66;5003028;28;20022;-91
2022/12/13 08:48:26;;;;;;;68.55;24.63;;;;;;;-7.05;100.00;100970.88;4997148;28;20723;-90
2022/12/13 08:50:51;;;;;;;87.53;54.63;;;;;;;-6.89;100.00;100979.88;5003412;28;20060;-89
2022/12/13 08:53:16;;;;;;;59.78;26.17;;;;;;;-6.89;100.00;100985.91;4999974;28;20053;-89
2022/12/13 08:55:42;;;;;;;57.70;23.35;;;;;;;-6.84;100.00;100992.06;4998904;28;20109;-90
2022/12/13 08:58:08;;;;;;;90.43;56.00;;;;;;;-6.75;100.00;100995.69;4998927;28;20061;-90
2022/12/13 09:00:35;;;;;;;63.97;26.02;;;;;;;-6.73;100.00;101002.63;5011507;28;20026;-89
2022/12/13 09:03:02;;;;;;;87.40;54.40;;;;;;;-6.59;100.00;101002.94;4999563;28;20083;-89
2022/12/13 09:05:27;;;;;;;85.35;52.28;;;;;;;-6.53;100.00;101006.53;5001555;28;20478;-89
2022/12/13 09:07:57;;;;;;;86.63;53.45;;;;;;;-6.40;100.00;100997.28;5000803;28;20096;-89
2022/12/13 09:10:23;;;;;;;87.75;53.78;;;;;;;-6.35;100.00;100982.75;4997808;28;20690;-90
2022/12/13 09:12:48;;;;;;;58.40;24.02;;;;;;;-6.23;100.00;100997.63;4995822;28;20544;-88
2022/12/13 09:15:14;;;;;;;88.43;54.67;;;;;;;-6.25;100.00;100988.97;5004957;28;20026;-88
2022/12/13 09:17:39;;;;;;;62.95;26.85;;;;;;;-6.17;100.00;100989.13;5002710;28;20057;-90
2022/12/13 09:20:07;;;;;;;59.22;24.27;;;;;;;-6.15;100.00;100996.06;5005264;28;20090;-88
2022/12/13 09:22:33;;;;;;;84.50;53.30;;;;;;;-6.16;100.00;100985.69;5007291;28;20018;-89
2022/12/13 09:24:58;;;;;;;89.10;53.92;;;;;;;-6.19;100.00;100976.13;5004182;28;20037;-87
2022/12/13 09:27:24;;;;;;;89.47;54.65;;;;;;;-6.04;100.00;100988.50;5016851;28;20403;-87
2022/12/13 09:29:49;;;;;;;93.53;55.63;;;;;;;-5.93;100.00;100991.31;5013519;28;20042;-88
2022/12/13 09:32:15;;;;;;;85.13;54.10;;;;;;;-5.90;100.00;100997.38;5012716;28;20041;-89
2022/12/13 09:34:40;;;;;;;84.10;52.47;;;;;;;-5.86;100.00;100991.38;5004851;28;20041;-88
2022/12/13 09:37:05;;;;;;;90.05;53.38;;;;;;;-5.82;100.00;100997.50;5003030;28;20040;-87
2022/12/13 09:39:31;;;;;;;85.25;53.03;;;;;;;-5.85;100.00;100982.78;5005105;28;20058;-88
2022/12/13 09:41:59;;;;;;;87.22;54.20;;;;;;;-5.81;100.00;100987.19;5009084;28;20026;-87
2022/12/13 09:44:31;;;;;;;85.30;53.30;;;;;;;-5.73;100.00;100986.44;5018985;28;20058;-88
2022/12/13 09:46:59;;;;;;;89.00;54.13;;;;;;;-5.68;100.00;100984.81;5006610;28;20033;-88
2022/12/13 09:49:33;;;;;;;83.60;51.63;;;;;;;-5.65;100.00;100988.31;5016596;28;20971;-87
2022/12/13 09:52:01;;;;;;;76.55;49.50;;;;;;;-5.60;100.00;100989.28;5010019;28;20097;-88
2022/12/13 09:54:26;;;;;;;86.85;52.15;;;;;;;-5.59;100.00;100991.03;5010229;28;20037;-87
2022/12/13 09:56:54;;;;;;;87.22;52.50;;;;;;;-5.54;100.00;100984.19;5017265;28;20721;-88
2022/12/13 09:59:34;;;;;;;88.78;53.45;;;;;;;-5.44;100.00;100987.78;5028710;28;20044;-88
2022/12/13 10:02:20;;;;;;;79.90;51.05;;;;;;;-5.44;100.00;100986.94;5026476;28;20382;-89
2022/12/13 10:04:45;;;;;;;84.13;52.63;;;;;;;-5.49;100.00;100970.41;5020132;28;20078;-88
2022/12/13 10:07:17;;;;;;;88.32;52.42;;;;;;;-5.42;100.00;100983.53;5027102;28;20650;-89
2022/12/13 10:09:43;;;;;;;81.15;50.58;;;;;;;-5.48;100.00;100957.47;5006073;28;20030;-89
2022/12/13 10:12:13;;;;;;;84.60;53.10;;;;;;;-5.36;100.00;100956.78;5008071;28;20416;-88
2022/12/13 10:14:46;;;;;;;84.30;51.35;;;;;;;-5.22;100.00;100965.69;5005599;28;20026;-89
2022/12/13 10:17:17;;;;;;;80.80;50.78;;;;;;;-5.15;100.00;100958.84;5005533;28;20040;-89
2022/12/13 10:19:45;;;;;;;84.28;51.88;;;;;;;-5.02;100.00;100963.34;5008813;28;20021;-90
2022/12/13 10:22:13;;;;;;;82.07;50.97;;;;;;;-4.88;100.00;100963.56;5005534;28;20029;-88
2022/12/13 10:24:50;;;;;;;81.78;50.40;;;;;;;-4.75;100.00;100957.69;5009684;28;20106;-89
2022/12/13 10:27:26;;;;;;;75.28;47.60;;;;;;;-4.67;100.00;100948.28;5005139;28;20048;-88
2022/12/13 10:30:15;;;;;;;74.13;46.72;;;;;;;-4.56;100.00;100954.44;5007807;28;20026;-88
2022/12/13 10:32:42;;;;;;;72.65;46.40;;;;;;;-4.49;100.00;100938.97;4999071;28;20437;-89
2022/12/13 10:35:22;;;;;;;73.60;45.13;;;;;;;-4.46;100.00;100939.00;5008135;28;20026;-88
2022/12/13 10:37:47;;;;;;;65.88;42.83;;;;;;;-4.46;100.00;100936.41;5007807;28;20033;-89
2022/12/13 10:40:44;;;;;;;69.80;43.50;;;;;;;-4.47;100.00;100927.75;5009263;28;20434;-90
2022/12/13 10:43:19;;;;;;;66.47;42.53;;;;;;;-4.51;100.00;100931.16;4995268;28;20104;-89
2022/12/13 10:45:59;;;;;;;68.63;43.97;;;;;;;-4.54;100.00;100921.59;5006198;28;20478;-92
2022/12/13 10:48:50;;;;;;;70.50;43.72;;;;;;;-4.50;100.00;100932.91;5004496;28;20104;-92
2022/12/13 10:51:19;;;;;;;64.45;41.50;;;;;;;-4.56;100.00;100920.69;5009734;28;20087;-91
2022/12/13 10:53:52;;;;;;;65.80;43.63;;;;;;;-4.54;100.00;100924.19;5003186;28;20124;-91
2022/12/13 10:56:19;;;;;;;67.43;41.80;;;;;;;-4.53;100.00;100918.13;5008154;28;20025;-91
2022/12/13 10:58:51;;;;;;;66.22;44.25;;;;;;;-4.49;100.00;100907.78;5013158;28;20119;-92
2022/12/13 11:01:16;;;;;;;65.72;43.05;;;;;;;-4.36;100.00;100904.47;5004784;28;20049;-91
2022/12/13 11:03:42;;;;;;;65.05;43.55;;;;;;;-4.26;100.00;100895.94;5007512;28;20038;-91
2022/12/13 11:06:18;;;;;;;63.13;42.58;;;;;;;-4.15;100.00;100883.03;5008201;28;20498;-92
2022/12/13 11:08:43;;;;;;;63.22;41.70;;;;;;;-4.00;100.00;100898.78;5007566;28;20382;-92
2022/12/13 11:11:11;;;;;;;62.25;41.78;;;;;;;-3.83;100.00;100896.31;5002350;28;20040;-92
2022/12/13 11:13:52;;;;;;;63.45;40.67;;;;;;;-3.83;100.00;100871.19;5000032;28;20391;-92